Time;durP1;ratioP1;P1;durP2;ratioP2;P2;SDS_P1;SDS_P2;PMS_P1;PMS_P2;Temp;Humidity;BMP_temperature;BMP_pressure;BME280_temperature;BME280_humidity;BME280_pressure;Samples;Min_cycle;Max_cycle;Signal;HPM_P1;HPM_P2
2022/04/28 00:02:08;;;;;;;11.77;6.32;;;;;;;4.96;77.72;102873.66;5033784;28;20048;-67
2022/04/28 00:04:33;;;;;;;15.00;7.30;;;;;;;4.89;77.70;102879.00;5025545;28;20100;-67
2022/04/28 00:06:59;;;;;;;14.35;7.47;;;;;;;4.83;78.33;102892.25;5014327;28;20107;-67
2022/04/28 00:09:25;;;;;;;14.30;6.78;;;;;;;4.71;78.73;102886.16;5013919;28;20029;-67
2022/04/28 00:11:51;;;;;;;16.85;6.97;;;;;;;4.68;78.86;102889.69;5014192;28;20612;-67
2022/04/28 00:14:17;;;;;;;17.55;7.22;;;;;;;4.61;79.38;102886.19;5012967;28;20041;-67
2022/04/28 00:16:42;;;;;;;15.65;7.38;;;;;;;4.64;79.38;102883.56;4996237;28;20056;-68
2022/04/28 00:19:08;;;;;;;21.58;7.38;;;;;;;4.71;78.96;102894.94;5013922;28;20049;-67
2022/04/28 00:21:33;;;;;;;22.58;7.72;;;;;;;4.64;79.54;102890.59;5023561;28;20999;-67
2022/04/28 00:23:59;;;;;;;16.63;7.18;;;;;;;4.72;79.07;102894.09;5034584;28;20029;-67
2022/04/28 00:26:24;;;;;;;23.67;7.72;;;;;;;4.63;79.39;102889.72;5034103;28;20755;-67
2022/04/28 00:28:50;;;;;;;13.50;7.57;;;;;;;4.66;79.21;102886.19;5016682;28;20136;-67
2022/04/28 00:31:15;;;;;;;15.00;7.57;;;;;;;4.58;79.01;102885.34;5033241;28;20041;-67
2022/04/28 00:33:41;;;;;;;15.45;7.53;;;;;;;4.60;79.54;102888.84;5034573;28;20414;-67
2022/04/28 00:36:07;;;;;;;18.88;7.05;;;;;;;4.48;79.14;102888.94;5015624;28;20811;-67
2022/04/28 00:38:32;;;;;;;18.02;7.32;;;;;;;4.38;79.17;102888.97;5037091;28;20033;-67
2022/04/28 00:40:58;;;;;;;15.70;8.55;;;;;;;4.30;80.40;102885.47;5037640;28;20115;-67
2022/04/28 00:43:28;;;;;;;31.63;8.18;;;;;;;4.41;80.14;102890.72;5037384;28;20045;-67
2022/04/28 00:45:54;;;;;;;14.00;7.57;;;;;;;4.47;80.50;102889.78;5018892;28;20044;-67
2022/04/28 00:51:06;;;;;;;17.35;8.52;;;;;;;4.47;80.18;102895.09;5035136;28;20046;-67
2022/04/28 00:53:41;;;;;;;17.25;8.55;;;;;;;4.46;80.48;102901.25;5018463;28;20037;-67
2022/04/28 00:56:09;;;;;;;17.75;7.63;;;;;;;4.48;80.19;102900.38;5037101;28;20679;-67
2022/04/28 00:58:36;;;;;;;18.33;7.88;;;;;;;4.40;80.65;102903.03;5037732;28;20049;-67
2022/04/28 01:01:01;;;;;;;15.20;8.13;;;;;;;4.34;80.53;102900.44;5037338;28;20041;-67
2022/04/28 01:03:30;;;;;;;16.63;7.43;;;;;;;4.24;81.08;102897.84;5019077;28;20048;-67
2022/04/28 01:05:56;;;;;;;20.75;7.32;;;;;;;4.19;81.39;102897.84;5019302;28;20052;-67
2022/04/28 01:08:22;;;;;;;19.88;8.32;;;;;;;4.20;80.43;102894.31;5019169;28;20033;-67
2022/04/28 01:10:48;;;;;;;12.90;7.10;;;;;;;4.16;80.79;102904.00;5003953;28;20111;-67
2022/04/28 01:13:14;;;;;;;17.17;7.60;;;;;;;4.16;80.42;102901.38;5002652;28;20045;-67
2022/04/28 01:15:43;;;;;;;12.65;7.10;;;;;;;4.25;80.21;102899.59;5019142;28;20068;-67
2022/04/28 01:18:08;;;;;;;21.58;7.63;;;;;;;4.15;80.54;102902.25;5018944;28;20045;-67
2022/04/28 01:20:34;;;;;;;17.55;8.23;;;;;;;4.06;81.60;102899.66;5036502;28;20044;-67
2022/04/28 01:23:00;;;;;;;14.10;7.35;;;;;;;4.01;81.73;102908.47;5038496;28;20043;-68
2022/04/28 01:25:25;;;;;;;14.27;6.45;;;;;;;3.85;81.63;102900.59;5037537;28;20546;-67
2022/04/28 01:27:51;;;;;;;17.25;7.78;;;;;;;3.88;81.18;102902.34;5038069;28;20645;-67
2022/04/28 01:30:16;;;;;;;11.40;7.10;;;;;;;3.85;81.93;102905.88;5018835;28;20055;-67
2022/04/28 01:32:49;;;;;;;16.48;7.60;;;;;;;3.87;82.25;102898.84;5035251;28;20095;-67
2022/04/28 01:35:14;;;;;;;17.40;7.68;;;;;;;3.78;82.75;102893.59;5035183;28;20766;-66
2022/04/28 01:37:40;;;;;;;13.93;7.93;;;;;;;3.70;82.58;102897.97;5035796;28;20773;-66
2022/04/28 01:40:14;;;;;;;14.88;8.10;;;;;;;3.56;83.17;102902.38;5019858;28;20035;-66
2022/04/28 01:42:42;;;;;;;15.13;7.78;;;;;;;3.63;83.28;102902.41;5019280;28;20032;-66
2022/04/28 01:45:08;;;;;;;13.60;7.57;;;;;;;3.61;83.25;102895.34;5019473;28;20045;-66
2022/04/28 01:47:41;;;;;;;16.85;8.20;;;;;;;3.58;83.41;102893.63;5019565;28;20052;-66
2022/04/28 01:50:39;;;;;;;23.25;9.10;;;;;;;3.60;84.07;102891.84;4994769;28;20976;-66
2022/04/28 01:56:20;;;;;;;16.73;8.93;;;;;;;3.53;83.79;102881.31;4980006;28;20068;-67
2022/04/28 01:58:56;;;;;;;17.75;8.60;;;;;;;3.48;84.22;102891.88;4978595;28;20839;-66
2022/04/28 02:01:40;;;;;;;21.58;8.52;;;;;;;3.48;84.37;102902.41;4996086;28;20129;-66
2022/04/28 02:04:05;;;;;;;24.23;9.27;;;;;;;3.51;83.51;102899.75;4974807;28;20054;-66
2022/04/28 02:06:32;;;;;;;22.95;9.02;;;;;;;3.37;84.55;102905.06;4958868;28;20050;-66
2022/04/28 02:08:59;;;;;;;19.23;9.35;;;;;;;3.42;84.09;102902.44;4975929;28;20101;-65
2022/04/28 02:11:25;;;;;;;20.17;9.25;;;;;;;3.44;84.69;102902.41;4973679;28;20093;-65
2022/04/28 02:14:13;;;;;;;19.10;8.75;;;;;;;3.48;84.27;102909.44;4974731;28;20047;-66
2022/04/28 02:16:57;;;;;;;19.77;9.23;;;;;;;3.53;84.96;102905.06;4974015;28;20198;-66
2022/04/28 02:19:27;;;;;;;16.73;8.60;;;;;;;3.45;84.35;102905.03;4973848;28;20050;-67
2022/04/28 02:21:52;;;;;;;19.23;9.57;;;;;;;3.47;84.22;102905.06;4974711;28;20155;-66
2022/04/28 02:24:18;;;;;;;17.42;9.75;;;;;;;3.52;84.74;102900.66;4974549;28;20825;-66
2022/04/28 02:26:44;;;;;;;15.30;8.90;;;;;;;3.52;84.30;102914.72;4990890;28;20081;-66
2022/04/28 02:29:10;;;;;;;17.35;9.65;;;;;;;3.47;84.61;102910.34;5017072;28;20072;-66
2022/04/28 02:31:38;;;;;;;20.27;9.48;;;;;;;3.44;84.81;102910.31;4998555;28;20045;-66
2022/04/28 02:34:04;;;;;;;19.23;8.77;;;;;;;3.37;85.46;102915.59;5016926;28;20042;-66
2022/04/28 02:36:33;;;;;;;22.30;9.70;;;;;;;3.44;85.15;102913.84;4998846;28;20099;-66
2022/04/28 02:38:59;;;;;;;20.67;8.77;;;;;;;3.46;84.82;102919.09;5024756;28;20037;-66
2022/04/28 02:41:24;;;;;;;18.25;9.07;;;;;;;3.36;85.02;102921.78;5035594;28;20625;-67
2022/04/28 02:43:52;;;;;;;19.98;10.38;;;;;;;3.41;85.50;102928.78;5035083;28;20033;-66
2022/04/28 02:46:18;;;;;;;18.85;8.98;;;;;;;3.36;85.54;102916.50;5033913;28;20079;-65
2022/04/28 02:48:56;;;;;;;20.48;9.38;;;;;;;3.33;84.83;102924.41;5034770;28;20502;-66
2022/04/28 02:51:22;;;;;;;24.95;10.13;;;;;;;3.21;85.62;102921.72;5033620;28;20120;-66
2022/04/28 02:53:47;;;;;;;19.85;9.43;;;;;;;3.12;86.19;102916.47;5036088;28;20056;-65
2022/04/28 02:56:13;;;;;;;17.35;8.63;;;;;;;3.11;85.57;102918.25;5034074;28;20858;-66
2022/04/28 02:58:38;;;;;;;19.98;10.45;;;;;;;3.05;85.36;102919.97;5034009;28;20041;-66
2022/04/28 03:01:06;;;;;;;22.27;10.85;;;;;;;3.05;85.64;102925.25;5033358;28;20033;-66
2022/04/28 03:03:32;;;;;;;24.15;9.65;;;;;;;3.08;86.21;102922.63;5034890;28;20029;-66
2022/04/28 03:11:28;;;;;;;22.40;9.82;;;;;;;3.06;86.51;102916.44;5033433;28;20230;-66
2022/04/28 03:13:54;;;;;;;21.92;9.70;;;;;;;3.08;86.08;102920.84;5035713;28;20469;-66
2022/04/28 03:16:20;;;;;;;29.42;10.80;;;;;;;3.02;86.01;102918.22;5033357;28;20159;-65
2022/04/28 03:18:54;;;;;;;25.35;10.55;;;;;;;2.97;85.73;102919.97;5034173;28;20052;-66
2022/04/28 03:21:20;;;;;;;20.00;9.23;;;;;;;3.00;86.51;102919.97;5035347;28;20064;-66
2022/04/28 03:23:46;;;;;;;23.15;10.27;;;;;;;3.03;86.26;102921.72;5016593;28;20828;-66
2022/04/28 03:26:12;;;;;;;21.98;9.70;;;;;;;2.94;86.38;102919.94;5016814;28;20041;-66
2022/04/28 03:28:38;;;;;;;27.05;9.20;;;;;;;2.76;86.34;102922.53;5035592;28;20044;-66
2022/04/28 03:31:05;;;;;;;28.75;11.50;;;;;;;2.71;86.54;102919.00;5016810;28;20041;-66
2022/04/28 03:33:40;;;;;;;25.48;10.00;;;;;;;2.68;86.65;102919.91;5017508;28;20033;-66
2022/04/28 03:36:50;;;;;;;22.45;9.90;;;;;;;2.74;86.79;102926.94;5016603;28;20090;-66
2022/04/28 03:38:52;;;;;;;25.70;10.02;;;;;;;2.64;87.63;102920.75;5020880;28;20080;-65
2022/04/28 03:41:18;;;;;;;28.77;10.00;;;;;;;2.60;87.35;102922.50;5032773;28;21032;-66
2022/04/28 03:43:44;;;;;;;19.25;9.65;;;;;;;2.56;87.38;102928.66;5033225;28;20041;-66
2022/04/28 03:46:10;;;;;;;22.70;10.45;;;;;;;2.52;87.28;102928.63;5032874;28;20048;-65
2022/04/28 03:48:37;;;;;;;26.35;11.02;;;;;;;2.56;87.83;102920.75;5016524;28;20041;-66
2022/04/28 03:51:03;;;;;;;26.58;10.77;;;;;;;2.54;87.73;102914.59;5034384;28;20045;-66
2022/04/28 03:53:29;;;;;;;29.88;11.70;;;;;;;2.53;87.51;102911.94;5034338;28;20494;-66
2022/04/28 03:55:55;;;;;;;26.83;11.40;;;;;;;2.50;87.91;102915.44;5034867;28;20029;-66
2022/04/28 03:58:21;;;;;;;23.75;10.18;;;;;;;2.53;87.26;102912.81;5015372;28;20068;-65
2022/04/28 04:00:49;;;;;;;26.85;11.05;;;;;;;2.55;87.55;102913.69;5017077;28;20045;-66
2022/04/28 04:03:21;;;;;;;21.33;9.65;;;;;;;2.65;87.09;102914.59;5016255;28;20848;-66
2022/04/28 04:05:47;;;;;;;25.15;10.82;;;;;;;2.56;87.30;102920.75;5016716;28;20044;-66
2022/04/28 04:08:13;;;;;;;26.23;10.20;;;;;;;2.53;87.32;102926.00;5015794;28;20425;-65
2022/04/28 04:10:48;;;;;;;27.00;10.82;;;;;;;2.58;87.53;102931.28;5035185;28;20041;-66
2022/04/28 04:13:13;;;;;;;24.83;10.15;;;;;;;2.60;87.49;102922.50;5020218;28;20498;-66
2022/04/28 04:15:43;;;;;;;22.58;10.60;;;;;;;2.66;87.02;102924.28;5020722;28;20106;-65
2022/04/28 04:18:28;;;;;;;28.27;10.40;;;;;;;2.71;87.07;102926.91;5023249;28;20056;-65
2022/04/28 04:21:01;;;;;;;25.98;11.40;;;;;;;2.82;87.27;102938.38;5020005;28;20036;-66
2022/04/28 04:23:27;;;;;;;24.33;11.70;;;;;;;2.63;87.13;102936.56;5019817;28;20037;-66
2022/04/28 04:25:52;;;;;;;20.48;10.30;;;;;;;2.67;87.95;102930.44;5038761;28;20041;-66
2022/04/28 04:28:20;;;;;;;29.83;11.07;;;;;;;2.75;88.14;102933.97;5019971;28;20059;-65
2022/04/28 04:33:56;;;;;;;24.33;10.70;;;;;;;2.78;87.10;102934.84;5019418;28;20087;-66
2022/04/28 04:36:22;;;;;;;23.58;10.88;;;;;;;2.94;86.70;102945.44;5017768;28;20029;-66
2022/04/28 04:38:49;;;;;;;28.85;10.95;;;;;;;2.98;85.65;102952.47;5022523;28;20783;-66
2022/04/28 04:41:14;;;;;;;24.10;10.70;;;;;;;3.24;85.38;102949.88;5034749;28;20036;-67
2022/04/28 04:43:40;;;;;;;25.60;10.65;;;;;;;3.29;85.24;102950.75;5035725;28;20096;-66
2022/04/28 04:46:06;;;;;;;28.27;11.25;;;;;;;3.55;84.44;102949.00;5034725;28;20522;-66
2022/04/28 04:48:55;;;;;;;22.75;9.68;;;;;;;4.23;81.71;102943.63;4974910;28;20052;-66
2022/04/28 04:51:32;;;;;;;26.50;10.38;;;;;;;4.55;80.12;102946.13;4974529;28;20065;-66
2022/04/28 04:54:07;;;;;;;23.58;10.75;;;;;;;4.65;79.54;102951.34;4974661;28;20058;-66
2022/04/28 04:56:33;;;;;;;24.48;10.48;;;;;;;4.44;80.45;102950.59;4946566;28;20082;-67
2022/04/28 04:58:59;;;;;;;22.75;11.27;;;;;;;4.44;80.60;102961.16;4956021;28;20031;-65
2022/04/28 05:01:25;;;;;;;22.80;10.50;;;;;;;4.32;81.21;102957.69;4939614;28;20041;-66
2022/04/28 05:04:09;;;;;;;28.85;10.07;;;;;;;4.29;80.77;102967.34;4956819;28;20121;-66
2022/04/28 05:06:53;;;;;;;21.02;10.30;;;;;;;4.53;79.61;102962.00;4957626;28;20598;-66
2022/04/28 05:09:29;;;;;;;17.35;8.25;;;;;;;4.78;79.09;102967.16;4956546;28;20047;-66
2022/04/28 05:11:54;;;;;;;23.45;10.23;;;;;;;5.06;78.29;102970.53;4955420;28;20086;-66
2022/04/28 05:14:52;;;;;;;24.25;10.00;;;;;;;5.37;76.80;102969.44;4948065;28;20101;-66
2022/04/28 05:17:19;;;;;;;18.15;9.48;;;;;;;5.68;76.09;102971.84;4954098;28;20061;-66
2022/04/28 05:20:20;;;;;;;24.00;11.00;;;;;;;5.83;75.84;102976.13;4932533;28;21208;-67
2022/04/28 05:23:04;;;;;;;16.92;8.82;;;;;;;6.18;74.44;102975.81;4954810;28;20050;-66
2022/04/28 05:25:55;;;;;;;17.48;9.05;;;;;;;6.18;73.72;102975.81;4989327;28;20925;-66
2022/04/28 05:28:39;;;;;;;19.02;8.00;;;;;;;6.00;74.40;102989.22;5025842;28;20548;-67
2022/04/28 05:31:28;;;;;;;16.58;9.30;;;;;;;6.25;73.50;102984.56;4971754;28;20069;-67
2022/04/28 05:34:19;;;;;;;21.67;9.82;;;;;;;6.48;73.30;102982.53;4964959;28;20056;-67
2022/04/28 05:36:53;;;;;;;23.52;9.07;;;;;;;6.49;73.09;102985.16;4973660;28;20054;-66
2022/04/28 05:39:19;;;;;;;16.58;8.57;;;;;;;6.63;72.98;102985.00;4955371;28;20042;-67
2022/04/28 05:41:45;;;;;;;20.40;8.93;;;;;;;7.33;70.88;102993.75;4972682;28;20046;-67
2022/04/28 05:46:54;;;;;;;14.27;7.10;;;;;;;7.38;69.75;102994.56;4989112;28;20132;-66
2022/04/28 05:49:21;;;;;;;18.15;8.55;;;;;;;7.71;68.67;102993.13;4970624;28;20095;-67
2022/04/28 05:51:48;;;;;;;13.07;6.97;;;;;;;7.64;69.03;102990.63;4952544;28;20038;-67
2022/04/28 05:54:15;;;;;;;12.88;7.95;;;;;;;7.85;69.11;102984.94;4971322;28;20108;-66
2022/04/28 05:56:42;;;;;;;14.70;7.07;;;;;;;7.72;68.45;102989.56;4962530;28;20096;-66
2022/04/28 05:59:10;;;;;;;14.70;6.85;;;;;;;8.23;67.56;102993.97;4971809;28;20888;-66
2022/04/28 06:01:42;;;;;;;16.13;7.80;;;;;;;8.77;66.91;102997.34;4973933;28;20120;-67
2022/04/28 06:04:10;;;;;;;17.33;7.10;;;;;;;8.67;65.20;103000.22;4964690;28;20065;-66
2022/04/28 06:06:38;;;;;;;13.35;6.63;;;;;;;8.57;65.30;103002.19;4968539;28;20138;-67
2022/04/28 06:09:10;;;;;;;;;;;;;;;8.52;66.70;103002.28;5004400;28;20045;-67
2022/04/28 06:11:36;;;;;;;13.63;6.35;;;;;;;8.68;65.52;102999.31;5016307;28;20721;-66
2022/04/28 06:14:02;;;;;;;14.90;6.72;;;;;;;8.56;65.42;103006.66;5034360;28;20037;-67
2022/04/28 06:16:45;;;;;;;10.73;6.43;;;;;;;8.69;65.64;103007.28;5025957;28;20061;-67
2022/04/28 06:19:29;;;;;;;12.13;7.05;;;;;;;8.53;65.65;103005.81;5015725;28;20878;-67
2022/04/28 06:22:00;;;;;;;14.02;6.18;;;;;;;8.66;66.24;103010.00;5025978;28;20080;-66
2022/04/28 06:24:28;;;;;;;16.73;7.65;;;;;;;8.45;65.91;103006.00;5008829;28;20048;-66
2022/04/28 06:26:55;;;;;;;12.75;6.30;;;;;;;9.31;64.44;103012.13;5013488;28;20034;-66
2022/04/28 06:29:20;;;;;;;10.40;6.70;;;;;;;9.36;64.98;103014.69;5006419;28;20026;-67
2022/04/28 06:31:46;;;;;;;15.27;5.82;;;;;;;9.39;64.14;103017.25;5004595;28;21494;-66
2022/04/28 06:34:30;;;;;;;9.95;6.32;;;;;;;9.65;62.68;103011.34;5016089;28;20052;-67
2022/04/28 06:36:55;;;;;;;12.25;6.63;;;;;;;9.58;63.98;103029.22;5011018;28;20037;-66
2022/04/28 06:39:23;;;;;;;14.63;6.00;;;;;;;9.23;63.34;103033.59;5020173;28;20048;-66
2022/04/28 06:41:49;;;;;;;12.45;5.82;;;;;;;9.61;63.63;103029.16;5010647;28;20030;-66
2022/04/28 06:44:19;;;;;;;12.48;5.10;;;;;;;9.61;63.58;103034.50;5000208;28;20549;-66
2022/04/28 06:47:14;;;;;;;16.20;5.53;;;;;;;9.93;61.99;103031.03;5002948;28;20053;-66
2022/04/28 06:50:05;;;;;;;12.60;5.82;;;;;;;9.49;62.57;103037.47;5012184;28;20154;-66
2022/04/28 06:52:49;;;;;;;10.90;5.57;;;;;;;9.76;62.65;103038.59;5031177;28;20048;-66
2022/04/28 06:55:27;;;;;;;14.82;6.35;;;;;;;10.71;62.15;103030.75;5014012;28;20060;-65
2022/04/28 06:57:53;;;;;;;13.57;5.72;;;;;;;10.47;60.76;103037.66;5011819;28;20037;-66
2022/04/28 07:00:27;;;;;;;9.13;5.63;;;;;;;10.05;60.90;103037.84;5012341;28;20037;-66
2022/04/28 07:02:54;;;;;;;16.25;5.10;;;;;;;10.37;59.17;103029.03;5014001;28;20930;-66
2022/04/28 07:05:20;;;;;;;10.63;5.30;;;;;;;10.05;61.00;103040.53;5013911;28;20781;-66
2022/04/28 07:07:45;;;;;;;9.27;4.45;;;;;;;10.33;60.68;103046.88;5030933;28;20037;-66
2022/04/28 07:10:15;;;;;;;14.25;5.30;;;;;;;10.22;59.03;103038.28;5014122;28;20041;-66
2022/04/28 07:12:45;;;;;;;12.63;5.88;;;;;;;10.70;61.60;103042.34;4997068;28;20045;-66
2022/04/28 07:15:29;;;;;;;7.70;5.25;;;;;;;11.61;58.37;103050.22;5029445;28;20170;-66
2022/04/28 07:18:15;;;;;;;9.25;5.47;;;;;;;11.23;57.98;103050.56;5030196;28;20150;-65
2022/04/28 07:20:42;;;;;;;11.35;5.10;;;;;;;11.00;57.68;103051.25;5014092;28;20152;-66
2022/04/28 07:23:07;;;;;;;10.00;6.30;;;;;;;10.59;59.82;103055.97;5030189;28;20029;-65
2022/04/28 07:25:33;;;;;;;8.00;5.28;;;;;;;10.73;60.46;103059.13;5030345;28;20820;-66
2022/04/28 07:27:58;;;;;;;13.00;6.57;;;;;;;10.66;58.48;103060.22;5031234;28;20044;-66
2022/04/28 07:30:44;;;;;;;11.18;5.57;;;;;;;10.66;59.42;103052.22;5031411;28;20835;-66
2022/04/28 07:33:15;;;;;;;15.43;6.40;;;;;;;10.83;60.10;103060.59;5013098;28;20043;-66
2022/04/28 07:35:59;;;;;;;11.27;5.55;;;;;;;11.29;58.78;103053.91;5026753;28;20052;-66
2022/04/28 07:38:44;;;;;;;13.02;5.93;;;;;;;11.38;57.06;103053.63;5014259;28;20071;-66
2022/04/28 07:41:19;;;;;;;11.27;5.60;;;;;;;12.14;58.44;103044.03;5011886;28;20043;-66
2022/04/28 07:43:45;;;;;;;12.73;4.85;;;;;;;11.55;56.95;103053.09;4994300;28;20817;-66
2022/04/28 07:46:11;;;;;;;9.00;5.15;;;;;;;11.90;58.10;103056.47;5010366;28;20403;-66
2022/04/28 07:48:36;;;;;;;12.77;5.30;;;;;;;11.67;53.69;103057.16;5010357;28;20905;-66
2022/04/28 07:51:03;;;;;;;11.77;6.03;;;;;;;11.60;55.04;103067.19;5011686;28;20051;-65
2022/04/28 07:53:32;;;;;;;10.68;4.93;;;;;;;11.04;55.76;103066.25;5013307;28;20063;-66
2022/04/28 07:56:11;;;;;;;9.35;4.93;;;;;;;11.30;56.09;103060.13;5012494;28;20032;-66
2022/04/28 07:58:37;;;;;;;7.95;4.18;;;;;;;11.44;56.01;103065.91;5027074;28;20504;-65
2022/04/28 08:01:24;;;;;;;6.65;4.57;;;;;;;11.47;55.95;103056.94;4977621;28;20084;-66
2022/04/28 08:03:51;;;;;;;8.63;4.75;;;;;;;11.56;56.74;103070.00;4991963;28;20037;-66
2022/04/28 08:06:16;;;;;;;9.48;5.25;;;;;;;12.15;56.01;103061.84;4975859;28;20038;-65
2022/04/28 08:08:42;;;;;;;9.68;5.30;;;;;;;11.66;55.12;103069.66;4993498;28;20111;-67
2022/04/28 08:11:08;;;;;;;7.55;4.90;;;;;;;12.53;56.96;103064.97;4992244;28;20049;-66
2022/04/28 08:13:35;;;;;;;8.73;4.80;;;;;;;11.43;54.52;103072.19;4993560;28;20475;-66
2022/04/28 08:16:15;;;;;;;8.48;4.78;;;;;;;11.36;54.35;103087.53;4993439;28;20042;-66
2022/04/28 08:18:44;;;;;;;8.68;4.60;;;;;;;12.13;56.51;103080.59;4977914;28;20037;-66
2022/04/28 08:21:19;;;;;;;7.95;4.35;;;;;;;11.30;57.09;103086.84;5004826;28;20039;-66
2022/04/28 08:23:45;;;;;;;11.68;5.60;;;;;;;11.73;55.64;103083.69;5030126;28;20419;-66
2022/04/28 08:26:10;;;;;;;9.52;4.53;;;;;;;11.76;54.40;103080.94;5027870;28;20083;-66
2022/04/28 08:28:37;;;;;;;11.65;4.13;;;;;;;12.47;54.13;103084.78;5028461;28;20359;-66
2022/04/28 08:31:02;;;;;;;9.20;4.25;;;;;;;12.12;53.39;103086.88;5029153;28;20052;-66
2022/04/28 08:33:28;;;;;;;12.38;4.47;;;;;;;12.39;52.94;103089.53;5013751;28;20284;-66
2022/04/28 08:35:54;;;;;;;7.68;4.28;;;;;;;11.59;54.23;103092.13;5029204;28;20044;-66
2022/04/28 08:38:20;;;;;;;5.68;4.07;;;;;;;12.05;56.61;103089.81;5013611;28;20037;-66
2022/04/28 08:40:48;;;;;;;11.43;4.78;;;;;;;12.11;54.30;103087.81;5031971;28;20743;-66
2022/04/28 08:43:27;;;;;;;7.97;4.18;;;;;;;12.93;53.13;103088.47;5012252;28;20114;-66
2022/04/28 08:48:54;;;;;;;11.85;5.65;;;;;;;12.83;55.07;103098.66;5013936;28;20037;-65
2022/04/28 08:51:27;;;;;;;9.45;4.50;;;;;;;13.03;54.25;103092.56;5012266;28;20049;-66
2022/04/28 08:53:55;;;;;;;8.55;4.47;;;;;;;12.23;54.83;103096.34;5013022;28;20131;-66
2022/04/28 08:56:24;;;;;;;6.00;3.90;;;;;;;12.18;54.50;103100.03;5012563;28;20033;-66
2022/04/28 08:58:50;;;;;;;7.10;4.25;;;;;;;12.47;57.38;103090.16;5016284;28;20124;-66
2022/04/28 09:01:16;;;;;;;11.32;5.40;;;;;;;12.49;54.90;103088.28;5017808;28;20036;-66
2022/04/28 09:04:04;;;;;;;7.05;4.20;;;;;;;12.65;57.04;103092.19;5032869;28;20541;-66
2022/04/28 09:06:54;;;;;;;10.98;5.13;;;;;;;12.76;53.66;103090.91;5019993;28;20119;-65
2022/04/28 09:09:38;;;;;;;18.55;4.88;;;;;;;12.53;53.09;103089.06;5034783;28;20236;-65
2022/04/28 09:12:27;;;;;;;9.50;4.28;;;;;;;12.29;54.19;103090.78;4972947;28;21003;-66
2022/04/28 09:14:55;;;;;;;6.00;4.15;;;;;;;11.89;53.42;103100.13;4973448;28;20046;-66
2022/04/28 09:17:21;;;;;;;8.55;4.18;;;;;;;11.88;52.71;103093.03;4972058;28;20042;-66
2022/04/28 09:19:58;;;;;;;9.57;4.53;;;;;;;12.59;56.25;103092.38;4971612;28;20129;-66
2022/04/28 09:22:28;;;;;;;19.75;5.72;;;;;;;13.48;55.08;103091.75;4954176;28;20917;-66
2022/04/28 09:24:57;;;;;;;10.80;5.05;;;;;;;13.78;53.43;103083.41;4970597;28;20057;-66
2022/04/28 09:27:24;;;;;;;8.20;4.88;;;;;;;14.03;52.15;103078.78;4969950;28;20038;-66
2022/04/28 09:29:54;;;;;;;8.70;4.47;;;;;;;13.64;53.82;103086.66;4954538;28;20047;-66
2022/04/28 09:32:21;;;;;;;6.57;4.50;;;;;;;13.28;52.42;103076.47;4953078;28;20526;-66
2022/04/28 09:35:07;;;;;;;15.88;5.75;;;;;;;13.40;52.65;103073.31;4970714;28;20146;-66
2022/04/28 09:37:49;;;;;;;12.73;5.15;;;;;;;13.91;54.89;103082.88;4941982;28;20080;-66
2022/04/28 09:43:02;;;;;;;11.27;4.75;;;;;;;13.00;52.62;103081.94;4970563;28;20815;-66
2022/04/28 09:45:33;;;;;;;11.60;4.32;;;;;;;13.66;51.29;103076.75;4971243;28;20109;-66
2022/04/28 09:48:03;;;;;;;12.23;5.28;;;;;;;13.45;56.27;103084.72;4973755;28;20149;-66
2022/04/28 09:50:32;;;;;;;11.30;5.85;;;;;;;13.04;54.98;103088.06;5026772;28;20055;-66
2022/04/28 09:53:21;;;;;;;6.35;4.47;;;;;;;13.55;50.76;103085.19;5031318;28;20033;-66
2022/04/28 09:56:06;;;;;;;10.45;4.85;;;;;;;13.69;53.98;103077.47;5032122;28;20850;-66
2022/04/28 09:58:42;;;;;;;10.68;4.93;;;;;;;14.17;53.47;103079.06;5000078;28;20703;-66
2022/04/28 10:01:08;;;;;;;12.27;4.85;;;;;;;14.20;51.26;103070.88;5013986;28;20044;-66
2022/04/28 10:03:40;;;;;;;8.63;5.15;;;;;;;14.03;52.05;103070.72;5014652;28;20033;-66
2022/04/28 10:06:07;;;;;;;8.05;5.40;;;;;;;14.12;50.60;103064.13;4999585;28;20041;-66
2022/04/28 10:08:47;;;;;;;15.20;6.15;;;;;;;13.92;55.59;103056.91;5034713;28;20758;-66
2022/04/28 10:11:17;;;;;;;9.93;5.45;;;;;;;13.69;55.24;103064.06;5015235;28;20036;-66
2022/04/28 10:13:45;;;;;;;13.15;5.88;;;;;;;14.15;52.74;103058.59;4999201;28;20037;-66
2022/04/28 10:16:12;;;;;;;12.93;6.10;;;;;;;14.00;51.40;103060.13;5032810;28;20430;-66
2022/04/28 10:18:45;;;;;;;11.10;5.25;;;;;;;13.41;51.82;103060.78;5014566;28;20048;-66
2022/04/28 10:21:16;;;;;;;12.55;6.35;;;;;;;14.47;53.15;103054.53;5017453;28;20045;-66
2022/04/28 10:32:56;;;;;;;14.48;5.57;;;;;;;14.15;53.25;103051.41;5014354;28;20713;-66
2022/04/28 10:35:38;;;;;;;9.98;5.40;;;;;;;13.88;54.87;103050.78;5033404;28;20820;-65
2022/04/28 10:38:15;;;;;;;7.90;5.30;;;;;;;13.77;54.41;103065.59;5033601;28;20124;-66
2022/04/28 10:40:53;;;;;;;10.70;5.03;;;;;;;14.40;50.51;103039.63;5034544;28;20860;-66
2022/04/28 10:43:24;;;;;;;10.00;4.80;;;;;;;13.92;48.81;103046.19;5034896;28;20836;-66
2022/04/28 10:45:51;;;;;;;9.15;5.07;;;;;;;13.46;50.80;103051.63;5034245;28;20033;-66
2022/04/28 10:48:25;;;;;;;12.23;5.55;;;;;;;13.82;54.01;103052.88;5015532;28;20033;-66
2022/04/28 10:51:17;;;;;;;12.88;5.25;;;;;;;14.36;52.34;103046.09;5034457;28;20036;-65
2022/04/28 10:53:55;;;;;;;12.93;6.40;;;;;;;14.24;50.19;103044.78;5032530;28;20041;-65
2022/04/28 10:56:21;;;;;;;10.57;5.55;;;;;;;14.33;50.24;103040.84;5033624;28;20379;-65
2022/04/28 10:58:47;;;;;;;8.38;5.57;;;;;;;14.59;48.85;103042.38;5035003;28;20037;-65
2022/04/28 11:01:33;;;;;;;14.52;6.03;;;;;;;14.86;54.09;103040.25;5033688;28;20115;-65
2022/04/28 11:04:03;;;;;;;11.90;5.82;;;;;;;14.93;52.64;103037.22;5033554;28;20063;-65
2022/04/28 11:06:34;;;;;;;12.57;5.95;;;;;;;14.41;49.72;103038.69;5031017;28;20145;-66
2022/04/28 11:09:02;;;;;;;10.93;5.95;;;;;;;14.60;50.95;103036.06;5033541;28;20041;-66
2022/04/28 11:11:46;;;;;;;12.88;5.38;;;;;;;14.71;50.14;103036.47;5033756;28;20045;-65
2022/04/28 11:14:13;;;;;;;11.15;6.30;;;;;;;14.81;52.06;103036.91;5032924;28;20047;-65
2022/04/28 11:16:41;;;;;;;6.68;5.18;;;;;;;14.46;53.49;103042.06;5031158;28;20045;-65
2022/04/28 11:19:08;;;;;;;12.25;5.97;;;;;;;14.05;51.54;103044.69;5029176;28;20037;-65
2022/04/28 11:21:34;;;;;;;10.75;5.47;;;;;;;14.62;49.26;103037.75;5028563;28;20615;-66
2022/04/28 11:24:00;;;;;;;8.73;5.85;;;;;;;14.09;50.87;103043.63;4995715;28;20045;-65
2022/04/28 11:26:35;;;;;;;7.75;5.20;;;;;;;14.81;51.96;103034.22;5013411;28;20039;-65
2022/04/28 11:29:31;;;;;;;9.65;5.57;;;;;;;14.85;51.39;103030.44;4994011;28;20056;-66
2022/04/28 11:31:58;;;;;;;9.30;5.53;;;;;;;14.12;53.02;103031.91;5031097;28;20067;-65
2022/04/28 11:34:24;;;;;;;14.43;6.53;;;;;;;14.56;54.02;103030.00;5031039;28;20103;-66
2022/04/28 11:36:49;;;;;;;10.00;5.93;;;;;;;14.81;51.62;103019.00;5031283;28;20409;-65
2022/04/28 11:39:15;;;;;;;8.90;5.50;;;;;;;14.34;49.67;103023.78;5029726;28;20103;-65
2022/04/28 11:41:42;;;;;;;12.55;5.95;;;;;;;14.66;53.41;103022.38;5022872;28;20032;-65
2022/04/28 11:44:13;;;;;;;7.90;5.40;;;;;;;14.99;47.69;103015.44;5028816;28;20089;-65
2022/04/28 11:46:41;;;;;;;7.72;4.97;;;;;;;14.59;48.01;103019.09;5029754;28;20182;-65
2022/04/28 11:49:07;;;;;;;8.13;4.55;;;;;;;14.06;49.08;103019.63;5031228;28;20048;-65
2022/04/28 11:51:34;;;;;;;13.02;5.43;;;;;;;14.69;49.69;103019.53;5030476;28;20533;-65
2022/04/28 11:54:00;;;;;;;7.38;4.75;;;;;;;15.05;46.87;103014.28;5011650;28;20088;-65
2022/04/28 11:56:29;;;;;;;9.13;5.32;;;;;;;14.92;49.52;103023.88;5011902;28;20583;-65
2022/04/28 11:58:55;;;;;;;8.75;3.95;;;;;;;14.96;55.15;103014.69;5012736;28;20059;-65
2022/04/28 12:01:21;;;;;;;9.15;4.85;;;;;;;14.58;48.63;103013.81;5029780;28;20037;-65
2022/04/28 12:03:53;;;;;;;9.13;5.57;;;;;;;14.74;51.77;103013.03;5029562;28;20047;-65
2022/04/28 12:06:20;;;;;;;8.25;4.57;;;;;;;14.91;52.28;103016.72;5030031;28;20060;-65
2022/04/28 12:08:56;;;;;;;17.45;5.93;;;;;;;15.22;52.01;103017.03;5030363;28;20455;-69
2022/04/28 12:14:22;;;;;;;9.85;5.40;;;;;;;15.32;51.85;103022.84;5028942;28;20071;-68